Time;durP1;ratioP1;P1;durP2;ratioP2;P2;SDS_P1;SDS_P2;PMS_P1;PMS_P2;Temp;Humidity;BMP_temperature;BMP_pressure;BME280_temperature;BME280_humidity;BME280_pressure;Samples;Min_cycle;Max_cycle;Signal;HPM_P1;HPM_P2
2024/01/08 00:00:46;;;;;;;13.17;3.27;;;24.20;99.90;;;;;;4992471;28;20872;-71
2024/01/08 00:03:14;;;;;;;14.47;3.60;;;24.20;99.90;;;;;;4982054;28;20175;-71
2024/01/08 00:05:41;;;;;;;21.83;3.50;;;24.20;99.90;;;;;;4984338;28;20185;-71
2024/01/08 00:08:09;;;;;;;11.77;3.50;;;24.10;99.90;;;;;;4985746;28;20186;-71
2024/01/08 00:10:39;;;;;;;15.27;3.30;;;24.10;99.90;;;;;;4993353;28;20653;-72
2024/01/08 00:13:08;;;;;;;10.67;3.17;;;24.20;99.90;;;;;;4990932;28;20571;-71
2024/01/08 00:15:36;;;;;;;16.23;3.43;;;24.40;99.90;;;;;;4973928;28;20246;-71
2024/01/08 00:18:03;;;;;;;11.63;3.20;;;24.60;99.90;;;;;;4979186;28;20262;-71
2024/01/08 00:20:31;;;;;;;15.60;3.40;;;24.70;99.90;;;;;;4984968;28;20182;-72
2024/01/08 00:22:58;;;;;;;13.37;3.80;;;24.90;99.90;;;;;;4993386;28;20206;-71
2024/01/08 00:25:25;;;;;;;12.43;3.30;;;25.10;99.90;;;;;;4993368;28;20174;-72
2024/01/08 00:27:53;;;;;;;12.97;3.33;;;25.10;99.90;;;;;;4993069;28;20189;-71
2024/01/08 00:30:21;;;;;;;15.50;3.13;;;25.20;99.90;;;;;;4990165;28;20179;-71
2024/01/08 00:32:48;;;;;;;14.63;3.00;;;25.30;99.90;;;;;;4981969;28;20677;-71
2024/01/08 00:35:15;;;;;;;17.67;3.80;;;25.40;99.90;;;;;;4983910;28;20215;-72
2024/01/08 00:37:43;;;;;;;20.50;2.83;;;25.50;99.90;;;;;;4983313;28;20187;-70
2024/01/08 00:40:11;;;;;;;11.27;3.10;;;25.70;99.90;;;;;;4978062;28;20179;-71
2024/01/08 00:42:39;;;;;;;14.50;3.20;;;26.00;99.90;;;;;;4973397;28;20255;-70
2024/01/08 00:45:07;;;;;;;19.87;3.10;;;26.00;99.90;;;;;;4973700;28;20234;-70
2024/01/08 00:47:34;;;;;;;11.40;3.30;;;26.10;99.90;;;;;;4973280;28;20536;-71
2024/01/08 00:50:02;;;;;;;12.67;3.70;;;26.20;99.90;;;;;;4978994;28;20190;-70
2024/01/08 00:52:30;;;;;;;17.53;3.47;;;26.30;99.90;;;;;;4992806;28;20722;-70
2024/01/08 00:55:04;;;;;;;8.33;2.83;;;26.30;99.90;;;;;;4992889;28;20292;-72
2024/01/08 00:57:33;;;;;;;9.70;2.63;;;26.30;99.90;;;;;;4992903;28;20177;-71
2024/01/08 01:00:00;;;;;;;12.43;2.67;;;26.30;99.90;;;;;;4992754;28;20182;-70
2024/01/08 01:02:28;;;;;;;9.73;2.30;;;26.50;99.90;;;;;;4993052;28;20644;-71
2024/01/08 01:04:55;;;;;;;12.27;3.20;;;26.30;99.90;;;;;;4993904;28;20182;-70
2024/01/08 01:07:22;;;;;;;4.50;2.23;;;26.30;99.90;;;;;;4993159;28;20488;-70
2024/01/08 01:09:50;;;;;;;11.70;2.20;;;26.60;99.90;;;;;;4990754;28;20226;-71
2024/01/08 01:12:17;;;;;;;8.97;2.27;;;26.70;99.90;;;;;;4994114;28;20534;-70
2024/01/08 01:14:45;;;;;;;7.03;2.20;;;26.90;99.90;;;;;;4990814;28;20220;-71
2024/01/08 01:17:12;;;;;;;9.57;2.57;;;27.00;99.90;;;;;;4993911;28;20683;-71
2024/01/08 01:19:39;;;;;;;8.33;2.30;;;27.00;99.90;;;;;;4993780;28;20186;-71
2024/01/08 01:22:07;;;;;;;7.57;2.20;;;26.80;99.90;;;;;;4994987;28;20258;-70
2024/01/08 01:24:34;;;;;;;7.27;2.03;;;26.80;99.90;;;;;;4993561;28;20174;-69
2024/01/08 01:27:01;;;;;;;10.60;2.50;;;27.00;99.90;;;;;;4993900;28;20181;-70
2024/01/08 01:29:29;;;;;;;4.97;1.70;;;27.10;99.90;;;;;;4993923;28;20638;-70
2024/01/08 01:31:56;;;;;;;4.27;1.67;;;27.30;99.90;;;;;;4993570;28;20175;-70
2024/01/08 01:34:24;;;;;;;9.70;1.80;;;27.40;99.90;;;;;;4964670;28;20767;-70
2024/01/08 01:36:51;;;;;;;5.50;2.10;;;27.50;99.90;;;;;;4975431;28;20559;-70
2024/01/08 01:39:19;;;;;;;6.27;1.70;;;27.60;99.90;;;;;;4990590;28;20243;-71
2024/01/08 01:41:46;;;;;;;7.33;2.00;;;27.70;99.90;;;;;;4978557;28;20195;-70
2024/01/08 01:44:13;;;;;;;4.57;1.97;;;27.90;99.90;;;;;;4973645;28;20752;-70
2024/01/08 01:46:47;;;;;;;18.73;5.53;;;28.00;99.90;;;;;;4983334;28;20179;-70
2024/01/08 01:49:21;;;;;;;6.90;1.83;;;27.50;99.90;;;;;;4974247;28;20214;-70
2024/01/08 01:51:51;;;;;;;7.07;2.07;;;27.30;99.90;;;;;;4989576;28;20189;-70
2024/01/08 01:54:21;;;;;;;4.00;1.80;;;26.80;99.90;;;;;;4982923;28;20593;-70
2024/01/08 01:56:53;;;;;;;11.57;2.03;;;26.30;99.90;;;;;;4974017;28;20667;-70
2024/01/08 01:59:22;;;;;;;6.57;2.37;;;25.80;99.90;;;;;;4987929;28;20182;-70
2024/01/08 02:01:49;;;;;;;6.60;2.03;;;25.30;99.90;;;;;;4991726;28;20584;-70
2024/01/08 02:04:18;;;;;;;6.10;1.90;;;25.00;99.90;;;;;;4993819;28;20585;-70
2024/01/08 02:06:46;;;;;;;7.80;1.73;;;24.80;99.90;;;;;;4993084;28;20182;-70
2024/01/08 02:09:16;;;;;;;5.50;2.20;;;24.60;99.90;;;;;;4993395;28;20171;-70
2024/01/08 02:11:44;;;;;;;6.50;2.20;;;24.50;99.90;;;;;;4984101;28;20190;-70
2024/01/08 02:14:14;;;;;;;10.00;2.93;;;24.40;99.90;;;;;;4973982;28;20202;-69
2024/01/08 02:16:44;;;;;;;12.63;3.30;;;24.20;99.90;;;;;;4973730;28;20234;-71
2024/01/08 02:19:12;;;;;;;11.23;2.80;;;24.20;99.90;;;;;;4975754;28;20189;-69
2024/01/08 02:21:40;;;;;;;12.57;3.23;;;24.10;99.90;;;;;;4961505;28;20179;-69
2024/01/08 02:24:08;;;;;;;12.80;3.40;;;23.80;99.90;;;;;;4975905;28;20599;-68
2024/01/08 02:26:36;;;;;;;9.60;3.20;;;23.80;99.90;;;;;;4976026;28;20221;-69
2024/01/08 02:29:04;;;;;;;11.50;3.33;;;23.60;99.90;;;;;;4976090;28;20179;-68
2024/01/08 02:31:31;;;;;;;12.57;3.40;;;23.50;99.90;;;;;;4977181;28;20179;-69
2024/01/08 02:33:58;;;;;;;10.53;3.13;;;23.60;99.90;;;;;;4976037;28;20578;-69
2024/01/08 02:36:26;;;;;;;12.87;3.40;;;23.50;99.90;;;;;;4975765;28;20184;-69
2024/01/08 02:38:53;;;;;;;11.37;3.30;;;23.40;99.90;;;;;;4975988;28;20273;-68
2024/01/08 02:41:20;;;;;;;11.93;3.57;;;23.40;99.90;;;;;;4976731;28;20187;-68
2024/01/08 02:43:48;;;;;;;11.63;3.37;;;23.40;99.90;;;;;;4975579;28;20239;-68
2024/01/08 02:46:15;;;;;;;7.83;3.00;;;23.40;99.90;;;;;;4976149;28;20825;-69
2024/01/08 02:48:42;;;;;;;11.00;3.20;;;23.40;99.90;;;;;;4988405;28;20182;-70
2024/01/08 02:51:10;;;;;;;11.27;3.23;;;23.40;99.90;;;;;;4991492;28;20205;-69
2024/01/08 02:53:37;;;;;;;9.07;3.10;;;23.30;99.90;;;;;;4989983;28;20679;-70
2024/01/08 02:56:05;;;;;;;8.07;2.70;;;23.40;99.90;;;;;;4994778;28;20214;-69
2024/01/08 02:58:32;;;;;;;9.97;3.47;;;23.40;99.90;;;;;;4994348;28;20608;-69
2024/01/08 03:00:59;;;;;;;9.60;3.07;;;23.40;99.90;;;;;;4985766;28;20190;-68
2024/01/08 03:03:27;;;;;;;4.67;2.40;;;23.40;99.90;;;;;;4975422;28;20656;-68
2024/01/08 03:05:54;;;;;;;6.77;2.93;;;23.30;99.90;;;;;;4975352;28;20269;-69
2024/01/08 03:08:21;;;;;;;7.37;2.97;;;23.30;99.90;;;;;;4976376;28;20186;-69
2024/01/08 03:10:49;;;;;;;5.13;1.83;;;23.30;99.90;;;;;;4982724;28;20273;-69
2024/01/08 03:13:16;;;;;;;4.90;2.10;;;23.30;99.90;;;;;;4994328;28;20182;-68
2024/01/08 03:15:43;;;;;;;5.73;2.37;;;23.20;99.90;;;;;;4994520;28;20213;-69
2024/01/08 03:18:11;;;;;;;10.27;2.73;;;23.20;99.90;;;;;;4994414;28;20175;-69
2024/01/08 03:20:38;;;;;;;10.67;2.73;;;23.20;99.90;;;;;;4986160;28;20190;-69
2024/01/08 03:23:06;;;;;;;8.57;2.80;;;23.30;99.90;;;;;;4974952;28;20235;-69
2024/01/08 03:25:33;;;;;;;12.93;2.87;;;23.20;99.90;;;;;;4974877;28;20223;-69
2024/01/08 03:28:00;;;;;;;14.40;2.67;;;23.30;99.90;;;;;;4986632;28;20189;-69
2024/01/08 03:30:28;;;;;;;9.97;2.90;;;23.20;99.90;;;;;;4986937;28;20199;-68
2024/01/08 03:32:55;;;;;;;6.27;2.50;;;23.10;99.90;;;;;;4974773;28;20647;-69
2024/01/08 03:35:22;;;;;;;12.30;2.97;;;23.20;99.90;;;;;;4974650;28;20567;-69
2024/01/08 03:37:49;;;;;;;13.70;3.23;;;23.20;99.90;;;;;;4974552;28;20270;-72
2024/01/08 03:40:17;;;;;;;6.97;2.60;;;23.20;99.90;;;;;;4975114;28;20652;-72
2024/01/08 03:42:45;;;;;;;12.50;3.13;;;23.20;99.90;;;;;;4974174;28;20197;-71
2024/01/08 03:45:12;;;;;;;10.60;2.73;;;23.20;99.90;;;;;;4974695;28;20201;-71
2024/01/08 03:47:40;;;;;;;6.80;2.80;;;23.30;99.90;;;;;;4974653;28;20175;-72
2024/01/08 03:50:08;;;;;;;9.47;3.07;;;23.40;99.90;;;;;;4979442;28;20656;-72
2024/01/08 03:52:35;;;;;;;8.53;2.80;;;23.50;99.90;;;;;;4993904;28;20225;-71
2024/01/08 03:55:03;;;;;;;8.37;2.63;;;23.50;99.90;;;;;;4989356;28;20650;-70
2024/01/08 03:57:30;;;;;;;8.80;3.23;;;23.60;99.90;;;;;;4984538;28;20186;-70
2024/01/08 03:59:57;;;;;;;4.20;2.37;;;23.80;99.90;;;;;;4981927;28;20191;-70
2024/01/08 04:02:25;;;;;;;6.13;2.63;;;23.80;99.90;;;;;;4973003;28;20535;-70
2024/01/08 04:04:52;;;;;;;7.63;2.53;;;23.80;99.90;;;;;;4976495;28;20591;-70
2024/01/08 04:07:19;;;;;;;6.70;1.87;;;23.80;99.90;;;;;;4982862;28;20639;-72
2024/01/08 04:09:47;;;;;;;5.27;2.10;;;23.90;99.90;;;;;;4984363;28;20182;-69
2024/01/08 04:12:14;;;;;;;6.20;2.60;;;24.00;99.90;;;;;;4978839;28;20180;-71
2024/01/08 04:14:41;;;;;;;5.00;2.10;;;24.10;99.90;;;;;;4977826;28;20214;-71
2024/01/08 04:17:09;;;;;;;8.23;2.73;;;23.90;99.90;;;;;;4984894;28;20179;-71
2024/01/08 04:19:36;;;;;;;6.80;2.30;;;23.80;99.90;;;;;;4984623;28;20683;-71
2024/01/08 04:22:03;;;;;;;8.30;2.97;;;23.70;99.90;;;;;;4982819;28;20546;-70
2024/01/08 04:24:31;;;;;;;7.67;2.53;;;23.90;99.90;;;;;;4982198;28;20270;-71
2024/01/08 04:26:58;;;;;;;7.10;2.03;;;23.90;99.90;;;;;;4984845;28;20560;-73
2024/01/08 04:29:25;;;;;;;6.03;2.50;;;23.90;99.90;;;;;;4981434;28;20661;-72
2024/01/08 04:31:53;;;;;;;9.23;2.57;;;23.90;99.90;;;;;;4974009;28;20222;-74
2024/01/08 04:34:20;;;;;;;13.83;2.20;;;24.10;99.90;;;;;;4981931;28;20198;-72
2024/01/08 04:36:52;;;;;;;6.90;2.10;;;24.10;99.90;;;;;;4977710;28;20295;-72
2024/01/08 04:39:19;;;;;;;6.03;2.27;;;24.10;99.90;;;;;;4987276;28;20270;-72
2024/01/08 04:41:46;;;;;;;6.20;2.10;;;24.00;99.90;;;;;;4992122;28;20229;-72
2024/01/08 04:44:14;;;;;;;6.07;2.00;;;24.10;99.90;;;;;;4976375;28;20286;-71
2024/01/08 04:46:45;;;;;;;7.50;2.33;;;24.20;99.90;;;;;;4978564;28;20282;-70
2024/01/08 04:49:12;;;;;;;9.50;2.23;;;24.30;99.90;;;;;;4983318;28;20533;-71
2024/01/08 04:51:40;;;;;;;8.93;2.00;;;24.40;99.90;;;;;;4978626;28;20571;-70
2024/01/08 04:54:08;;;;;;;8.40;2.30;;;24.60;99.90;;;;;;4992435;28;20222;-71
2024/01/08 04:56:35;;;;;;;10.20;2.50;;;24.60;99.90;;;;;;4992546;28;20265;-72
2024/01/08 04:59:03;;;;;;;10.83;2.60;;;24.60;99.90;;;;;;4992442;28;20183;-72
2024/01/08 05:01:37;;;;;;;6.03;1.87;;;24.80;99.90;;;;;;4991798;28;20253;-72
2024/01/08 05:04:05;;;;;;;4.70;2.07;;;25.10;99.90;;;;;;4992329;28;20182;-72
2024/01/08 05:06:32;;;;;;;5.30;1.97;;;25.40;99.90;;;;;;4990441;28;20198;-71
2024/01/08 05:09:00;;;;;;;10.27;2.33;;;25.50;99.90;;;;;;4992312;28;20229;-72
2024/01/08 05:11:28;;;;;;;7.40;2.27;;;25.60;99.90;;;;;;4991962;28;20607;-72
2024/01/08 05:13:55;;;;;;;6.00;1.80;;;25.60;99.90;;;;;;4985625;28;20277;-72
2024/01/08 05:16:22;;;;;;;4.23;1.83;;;25.60;99.90;;;;;;4986619;28;20191;-71
2024/01/08 05:18:50;;;;;;;5.03;1.80;;;25.50;99.90;;;;;;4972894;28;20286;-72
2024/01/08 05:21:17;;;;;;;7.90;2.67;;;25.40;99.90;;;;;;4972820;28;20712;-71
2024/01/08 05:23:44;;;;;;;6.00;1.83;;;25.40;99.90;;;;;;4989547;28;20282;-72
2024/01/08 05:26:12;;;;;;;11.43;1.73;;;25.40;99.90;;;;;;4986850;28;20569;-72
2024/01/08 05:28:39;;;;;;;2.60;1.70;;;25.40;99.90;;;;;;4972715;28;20274;-72
2024/01/08 05:31:06;;;;;;;5.87;2.23;;;25.40;99.90;;;;;;4972753;28;20193;-72
2024/01/08 05:33:34;;;;;;;9.23;1.60;;;25.50;99.90;;;;;;4972763;28;20190;-71
2024/01/08 05:36:01;;;;;;;6.77;2.00;;;25.60;99.90;;;;;;4975703;28;20219;-72
2024/01/08 05:38:28;;;;;;;7.73;1.60;;;25.80;99.90;;;;;;4989138;28;20586;-70
2024/01/08 05:40:55;;;;;;;5.07;1.73;;;25.90;99.90;;;;;;4978905;28;20664;-73
2024/01/08 05:43:23;;;;;;;10.37;4.13;;;26.00;99.90;;;;;;4974849;28;20739;-73
2024/01/08 05:45:51;;;;;;;7.37;2.70;;;26.00;99.90;;;;;;4979931;28;20218;-71
2024/01/08 05:48:19;;;;;;;11.03;2.00;;;26.00;99.90;;;;;;4976855;28;20269;-73
2024/01/08 05:50:46;;;;;;;6.03;2.13;;;26.00;99.90;;;;;;4972707;28;20198;-71
2024/01/08 05:53:14;;;;;;;5.13;1.83;;;26.10;99.90;;;;;;4976883;28;20269;-69
2024/01/08 05:55:41;;;;;;;4.80;1.70;;;26.30;99.90;;;;;;4985440;28;20222;-72
2024/01/08 05:58:08;;;;;;;6.90;2.40;;;26.30;99.90;;;;;;4989269;28;20176;-73
2024/01/08 06:00:35;;;;;;;5.87;1.53;;;26.10;99.90;;;;;;4988975;28;20678;-72
2024/01/08 06:03:03;;;;;;;3.07;1.40;;;26.00;99.90;;;;;;4987982;28;20186;-73
2024/01/08 06:05:30;;;;;;;5.73;1.70;;;26.00;99.90;;;;;;4976473;28;20186;-71
2024/01/08 06:07:58;;;;;;;7.13;2.50;;;25.90;99.90;;;;;;4981763;28;20198;-74
2024/01/08 06:11:17;;;;;;;7.80;1.83;;;25.80;99.90;;;;;;4976838;28;20186;-70
2024/01/08 06:13:44;;;;;;;6.53;2.23;;;25.90;99.90;;;;;;4987862;28;20183;-73
2024/01/08 06:16:17;;;;;;;4.37;1.40;;;26.10;99.90;;;;;;4982966;28;20221;-73
2024/01/08 06:18:45;;;;;;;3.90;1.43;;;26.20;99.90;;;;;;4985895;28;20492;-72
2024/01/08 06:21:12;;;;;;;7.17;1.40;;;26.20;99.90;;;;;;4989899;28;20237;-71
2024/01/08 06:23:39;;;;;;;3.73;1.73;;;26.20;99.90;;;;;;4993827;28;20270;-74
2024/01/08 06:26:07;;;;;;;3.93;1.67;;;26.30;99.90;;;;;;4982959;28;20553;-73
2024/01/08 06:28:35;;;;;;;6.20;1.50;;;26.30;99.90;;;;;;4995582;28;20177;-75
2024/01/08 06:31:06;;;;;;;5.70;1.37;;;26.10;99.90;;;;;;4988179;28;20183;-75
2024/01/08 06:33:34;;;;;;;5.53;1.83;;;26.10;99.90;;;;;;4975919;28;20271;-74
2024/01/08 06:36:01;;;;;;;5.13;1.47;;;26.00;99.90;;;;;;4975911;28;20242;-75
2024/01/08 06:38:29;;;;;;;4.97;1.60;;;26.00;99.90;;;;;;4980088;28;20670;-73
2024/01/08 06:40:56;;;;;;;5.10;1.30;;;25.90;99.90;;;;;;4995171;28;20171;-73
2024/01/08 06:43:23;;;;;;;3.97;1.83;;;25.90;99.90;;;;;;4986295;28;20222;-70
2024/01/08 06:45:51;;;;;;;3.63;1.63;;;25.90;99.90;;;;;;4975879;28;20179;-70
2024/01/08 06:48:18;;;;;;;6.37;1.47;;;25.80;99.90;;;;;;4975797;28;20287;-72
2024/01/08 06:50:45;;;;;;;6.17;1.60;;;25.90;99.90;;;;;;4981964;28;20189;-73
2024/01/08 06:53:13;;;;;;;7.70;1.83;;;25.90;99.90;;;;;;4992759;28;20187;-73
2024/01/08 06:55:41;;;;;;;3.60;1.40;;;25.90;99.90;;;;;;4975579;28;20211;-71
2024/01/08 06:58:08;;;;;;;5.87;1.20;;;25.90;99.90;;;;;;4976772;28;20171;-75
2024/01/08 07:00:35;;;;;;;3.90;1.00;;;25.90;99.90;;;;;;4991946;28;20186;-73
2024/01/08 07:03:03;;;;;;;3.97;1.20;;;25.80;99.90;;;;;;4989334;28;20179;-71
2024/01/08 07:05:30;;;;;;;7.27;1.30;;;25.90;99.90;;;;;;4974499;28;20210;-70
2024/01/08 07:07:59;;;;;;;3.07;1.20;;;25.80;99.90;;;;;;4983893;28;20525;-70
2024/01/08 07:10:28;;;;;;;3.27;1.73;;;25.90;99.90;;;;;;4976189;28;20261;-72
2024/01/08 07:12:56;;;;;;;2.30;1.00;;;25.90;99.90;;;;;;4981303;28;20323;-72
2024/01/08 07:15:52;;;;;;;5.13;1.40;;;25.70;99.90;;;;;;4976303;28;20252;-72
2024/01/08 07:18:19;;;;;;;1.80;0.97;;;25.60;99.90;;;;;;4976361;28;20251;-73
2024/01/08 07:20:47;;;;;;;2.97;1.03;;;25.60;99.90;;;;;;4975199;28;20191;-72
2024/01/08 07:23:14;;;;;;;1.83;0.80;;;25.50;99.90;;;;;;4989574;28;20238;-74
2024/01/08 07:25:42;;;;;;;4.60;0.97;;;25.40;99.90;;;;;;4975245;28;20191;-74
2024/01/08 07:28:11;;;;;;;2.33;0.70;;;25.30;99.90;;;;;;4975049;28;20219;-73
2024/01/08 07:30:39;;;;;;;1.63;0.60;;;25.30;99.90;;;;;;4974954;28;20531;-73
2024/01/08 07:33:06;;;;;;;2.03;0.70;;;25.30;99.90;;;;;;4976270;28;20575;-76
2024/01/08 07:35:34;;;;;;;3.30;0.60;;;25.20;99.90;;;;;;4993845;28;20229;-73
2024/01/08 07:38:01;;;;;;;2.33;0.73;;;25.30;99.90;;;;;;4994187;28;20660;-72
2024/01/08 07:40:29;;;;;;;1.83;0.73;;;25.20;99.90;;;;;;4991742;28;20195;-75
2024/01/08 07:42:58;;;;;;;4.47;0.90;;;25.30;99.90;;;;;;4987908;28;20186;-72
2024/01/08 07:45:28;;;;;;;3.60;1.33;;;25.40;99.90;;;;;;4987720;28;20198;-70
2024/01/08 07:47:56;;;;;;;2.37;1.03;;;25.30;99.90;;;;;;4994325;28;20221;-69
2024/01/08 07:50:24;;;;;;;5.13;1.03;;;25.30;99.90;;;;;;4978156;28;20661;-70
2024/01/08 07:52:51;;;;;;;2.70;1.13;;;25.10;99.90;;;;;;4974516;28;20303;-70
2024/01/08 07:55:19;;;;;;;3.43;1.00;;;25.10;99.90;;;;;;4985734;28;20229;-72
2024/01/08 07:57:47;;;;;;;2.07;1.10;;;25.00;99.90;;;;;;4983350;28;20191;-72
2024/01/08 08:00:15;;;;;;;5.03;0.97;;;25.00;99.90;;;;;;4994210;28;20592;-74
2024/01/08 08:02:42;;;;;;;0.93;0.57;;;25.00;99.90;;;;;;4988660;28;20780;-72
2024/01/08 08:05:09;;;;;;;2.33;1.03;;;25.00;99.90;;;;;;4977179;28;20214;-71
2024/01/08 08:07:37;;;;;;;2.37;0.63;;;25.00;99.90;;;;;;4978154;28;20190;-74
2024/01/08 08:10:05;;;;;;;2.17;1.20;;;25.00;99.90;;;;;;4993692;28;20194;-72
2024/01/08 08:12:32;;;;;;;2.53;1.20;;;25.00;99.90;;;;;;4993724;28;20281;-74
2024/01/08 08:14:59;;;;;;;2.73;1.30;;;24.90;99.90;;;;;;4993484;28;20210;-72
2024/01/08 08:17:27;;;;;;;1.83;1.03;;;24.90;99.90;;;;;;4993706;28;20178;-72
2024/01/08 08:19:54;;;;;;;5.10;1.00;;;24.90;99.90;;;;;;4993646;28;20179;-72
2024/01/08 08:22:22;;;;;;;3.03;0.90;;;24.90;99.90;;;;;;4993527;28;20210;-73
2024/01/08 08:24:49;;;;;;;2.53;1.00;;;24.90;99.90;;;;;;4993427;28;20249;-73
2024/01/08 08:27:17;;;;;;;1.53;0.90;;;24.90;99.90;;;;;;4993439;28;20229;-72
2024/01/08 08:29:45;;;;;;;2.37;1.13;;;24.80;99.90;;;;;;4993400;28;20189;-73
2024/01/08 08:32:13;;;;;;;9.07;1.90;;;24.70;99.90;;;;;;4994811;28;20194;-73
2024/01/08 08:34:41;;;;;;;1.90;0.77;;;24.80;99.90;;;;;;4993307;28;20638;-71
2024/01/08 08:37:08;;;;;;;1.70;0.83;;;24.80;99.90;;;;;;4994813;28;20633;-72
2024/01/08 08:39:37;;;;;;;1.77;0.93;;;24.70;99.90;;;;;;4994729;28;20174;-71
2024/01/08 08:42:05;;;;;;;2.47;1.00;;;24.70;99.90;;;;;;4994896;28;20536;-73
2024/01/08 08:44:33;;;;;;;2.97;1.40;;;24.60;99.90;;;;;;4994685;28;20777;-73
2024/01/08 08:47:02;;;;;;;3.80;1.00;;;24.70;99.90;;;;;;4994730;28;20193;-71
2024/01/08 08:49:29;;;;;;;3.07;0.80;;;24.60;99.90;;;;;;4994802;28;20273;-72
2024/01/08 08:51:56;;;;;;;2.67;1.00;;;24.60;99.90;;;;;;4994409;28;20703;-73
2024/01/08 08:54:24;;;;;;;2.03;0.80;;;24.60;99.90;;;;;;4994564;28;20213;-71
2024/01/08 08:56:51;;;;;;;1.00;0.60;;;24.60;99.90;;;;;;4994433;28;20179;-72
2024/01/08 08:59:19;;;;;;;1.87;0.70;;;24.50;99.90;;;;;;4994651;28;20174;-72
2024/01/08 09:01:50;;;;;;;3.37;1.10;;;24.50;99.90;;;;;;4994476;28;20174;-72
2024/01/08 09:04:18;;;;;;;4.07;0.90;;;24.50;99.90;;;;;;4994460;28;20175;-72
2024/01/08 09:06:45;;;;;;;3.03;1.40;;;24.50;99.90;;;;;;4994150;28;20186;-72
2024/01/08 09:09:13;;;;;;;1.67;0.87;;;24.60;99.90;;;;;;4994363;28;20649;-71
2024/01/08 09:11:40;;;;;;;2.33;0.80;;;24.50;99.90;;;;;;4994132;28;20178;-72
2024/01/08 09:14:08;;;;;;;2.07;1.17;;;24.50;99.90;;;;;;4994112;28;20261;-72
2024/01/08 09:16:36;;;;;;;4.00;1.23;;;24.50;99.90;;;;;;4993984;28;20217;-73
2024/01/08 09:19:03;;;;;;;2.27;1.00;;;24.50;99.90;;;;;;4994212;28;20608;-73
2024/01/08 09:21:31;;;;;;;1.70;1.00;;;24.40;99.90;;;;;;4994321;28;20175;-73
2024/01/08 09:23:58;;;;;;;2.90;1.07;;;24.40;99.90;;;;;;4994244;28;20182;-72
2024/01/08 09:26:25;;;;;;;1.40;0.90;;;24.40;99.90;;;;;;4994094;28;20209;-71
2024/01/08 09:28:53;;;;;;;1.53;1.20;;;24.40;99.90;;;;;;4993647;28;20240;-72
2024/01/08 09:31:20;;;;;;;1.83;1.10;;;24.40;99.90;;;;;;4993950;28;20174;-72
2024/01/08 09:33:47;;;;;;;2.40;1.43;;;24.40;99.90;;;;;;4994051;28;20183;-72
2024/01/08 09:36:15;;;;;;;1.93;1.10;;;24.30;99.90;;;;;;4993950;28;20222;-72
2024/01/08 09:38:45;;;;;;;4.50;1.60;;;24.20;99.90;;;;;;4994029;28;20269;-72
2024/01/08 09:41:12;;;;;;;4.03;1.30;;;24.20;99.90;;;;;;4994078;28;20706;-73
2024/01/08 09:43:40;;;;;;;2.60;1.47;;;24.20;99.90;;;;;;4993651;28;20313;-72
2024/01/08 09:46:11;;;;;;;4.50;1.10;;;24.10;99.90;;;;;;4993827;28;20186;-73
2024/01/08 09:48:38;;;;;;;1.60;0.90;;;24.10;99.90;;;;;;4994106;28;20546;-73
2024/01/08 09:51:07;;;;;;;2.40;1.40;;;24.00;99.90;;;;;;4994002;28;20182;-73
2024/01/08 09:53:35;;;;;;;2.30;1.33;;;24.00;99.90;;;;;;4993791;28;20171;-73
2024/01/08 09:56:02;;;;;;;1.77;1.30;;;24.00;99.90;;;;;;4993641;28;20229;-73
2024/01/08 09:58:30;;;;;;;2.53;1.00;;;24.20;99.90;;;;;;4993929;28;20652;-73
2024/01/08 10:00:57;;;;;;;2.93;1.27;;;24.20;99.90;;;;;;4993775;28;20186;-73
2024/01/08 10:03:26;;;;;;;6.80;1.53;;;24.20;99.90;;;;;;4993862;28;20171;-73
2024/01/08 10:05:53;;;;;;;3.43;1.80;;;24.10;99.90;;;;;;4993766;28;20185;-73
2024/01/08 10:08:21;;;;;;;2.43;1.33;;;24.10;99.90;;;;;;4993736;28;20186;-73
2024/01/08 10:10:48;;;;;;;1.90;1.20;;;24.10;99.90;;;;;;4993621;28;20550;-73
2024/01/08 10:13:17;;;;;;;2.17;0.90;;;24.00;99.90;;;;;;4993444;28;20516;-74
2024/01/08 10:15:48;;;;;;;3.17;1.30;;;24.00;99.90;;;;;;4993597;28;20215;-73
2024/01/08 10:18:18;;;;;;;2.33;1.27;;;24.10;99.90;;;;;;4993577;28;20178;-73
2024/01/08 10:20:46;;;;;;;2.27;1.10;;;24.00;99.90;;;;;;4993593;28;20175;-74
2024/01/08 10:23:16;;;;;;;1.83;1.00;;;24.00;99.90;;;;;;4993771;28;20620;-73
2024/01/08 10:25:53;;;;;;;3.50;1.27;;;23.90;99.90;;;;;;4993588;28;20201;-73
2024/01/08 10:28:20;;;;;;;3.07;0.93;;;23.90;99.90;;;;;;4993740;28;20170;-73
2024/01/08 10:30:48;;;;;;;2.43;1.00;;;23.90;99.90;;;;;;4993494;28;20587;-72
2024/01/08 10:33:19;;;;;;;2.17;0.83;;;23.90;99.90;;;;;;4993431;28;20205;-73
2024/01/08 10:35:46;;;;;;;4.97;1.17;;;23.90;99.90;;;;;;4993458;28;20256;-73
2024/01/08 10:38:14;;;;;;;1.70;0.80;;;23.90;99.90;;;;;;4993945;28;20252;-73
2024/01/08 10:40:41;;;;;;;4.03;0.93;;;23.90;99.90;;;;;;4995934;28;20320;-73
2024/01/08 10:43:09;;;;;;;3.73;0.90;;;23.80;99.90;;;;;;4997025;28;20233;-74
2024/01/08 10:45:36;;;;;;;5.67;0.87;;;23.80;99.90;;;;;;4997134;28;20170;-73
2024/01/08 10:48:11;;;;;;;1.37;0.80;;;23.80;99.90;;;;;;4997110;28;20186;-72
2024/01/08 10:50:39;;;;;;;2.47;0.87;;;23.80;99.90;;;;;;4986859;28;20236;-72
2024/01/08 10:53:15;;;;;;;3.93;1.00;;;23.80;99.90;;;;;;4977377;28;20534;-73
2024/01/08 10:55:43;;;;;;;4.27;1.00;;;23.90;99.90;;;;;;4977360;28;20715;-72
2024/01/08 10:58:23;;;;;;;1.37;1.03;;;23.90;99.90;;;;;;4977442;28;20190;-73
2024/01/08 11:00:52;;;;;;;4.33;1.03;;;23.90;99.90;;;;;;4977251;28;20253;-71
2024/01/08 11:03:20;;;;;;;2.37;0.80;;;23.80;99.90;;;;;;4977216;28;20176;-73
2024/01/08 11:05:51;;;;;;;2.27;0.70;;;23.80;99.90;;;;;;4977110;28;20202;-71
2024/01/08 11:08:23;;;;;;;1.30;0.77;;;23.80;99.90;;;;;;4977345;28;20570;-73
2024/01/08 11:10:51;;;;;;;1.00;0.70;;;23.70;99.90;;;;;;4977225;28;20194;-72
2024/01/08 11:13:19;;;;;;;2.57;0.80;;;23.70;99.90;;;;;;4976854;28;20183;-72
2024/01/08 11:15:49;;;;;;;2.83;0.80;;;23.60;99.90;;;;;;4976868;28;20237;-73
2024/01/08 11:18:26;;;;;;;2.37;0.90;;;23.70;99.90;;;;;;4976817;28;20619;-73
2024/01/08 11:20:56;;;;;;;5.50;1.00;;;23.70;99.90;;;;;;4976899;28;20735;-73
2024/01/08 11:23:35;;;;;;;1.83;0.93;;;23.70;99.90;;;;;;4976668;28;20227;-69
2024/01/08 11:26:04;;;;;;;2.70;0.80;;;23.70;99.90;;;;;;4976934;28;20176;-72
2024/01/08 11:28:37;;;;;;;3.17;0.90;;;23.70;99.90;;;;;;4977462;28;20539;-73
2024/01/08 11:31:17;;;;;;;2.37;0.70;;;23.60;99.90;;;;;;4987409;28;20261;-72
2024/01/08 11:34:28;;;;;;;2.80;0.80;;;23.60;99.90;;;;;;4964112;28;20191;-74
2024/01/08 11:37:16;;;;;;;3.80;0.77;;;23.60;99.90;;;;;;4970237;28;20207;-72
2024/01/08 11:39:50;;;;;;;2.30;1.00;;;23.60;99.90;;;;;;4976539;28;20606;-71
2024/01/08 11:42:24;;;;;;;3.60;0.77;;;23.60;99.90;;;;;;4976685;28;20183;-72
2024/01/08 11:44:51;;;;;;;1.27;0.67;;;23.60;99.90;;;;;;4984349;28;20234;-73
2024/01/08 11:47:19;;;;;;;3.80;0.80;;;23.60;99.90;;;;;;4994497;28;20187;-71
2024/01/08 11:49:49;;;;;;;4.00;0.90;;;23.60;99.90;;;;;;4995242;28;20194;-71
2024/01/08 11:52:18;;;;;;;5.23;1.00;;;23.60;99.90;;;;;;4995145;28;20183;-72
2024/01/08 11:54:48;;;;;;;0.83;0.63;;;23.50;99.90;;;;;;4992099;28;20217;-70
2024/01/08 11:57:19;;;;;;;4.30;0.80;;;23.50;99.90;;;;;;4986782;28;20190;-70
2024/01/08 11:59:47;;;;;;;0.97;0.70;;;23.40;99.90;;;;;;4980251;28;20178;-72
2024/01/08 12:02:24;;;;;;;1.07;0.50;;;23.40;99.90;;;;;;4976382;28;20666;-71
2024/01/08 12:05:00;;;;;;;1.87;0.67;;;23.50;99.90;;;;;;4976077;28;20230;-71
2024/01/08 12:07:32;;;;;;;2.03;0.70;;;23.50;99.90;;;;;;4988193;28;20519;-71
2024/01/08 12:10:04;;;;;;;0.50;0.50;;;23.50;99.90;;;;;;4995153;28;20552;-71
2024/01/08 12:12:32;;;;;;;2.77;0.60;;;23.50;99.90;;;;;;4994957;28;20187;-72
2024/01/08 12:14:59;;;;;;;0.97;0.60;;;23.50;99.90;;;;;;4976457;28;20302;-72
2024/01/08 12:17:27;;;;;;;1.23;0.70;;;23.50;99.90;;;;;;4975984;28;20677;-73
2024/01/08 12:19:56;;;;;;;1.43;0.80;;;23.50;99.90;;;;;;4975947;28;20194;-73
2024/01/08 12:22:25;;;;;;;1.50;0.70;;;23.40;99.90;;;;;;4975726;28;20191;-71
2024/01/08 12:24:55;;;;;;;3.10;0.70;;;23.50;99.90;;;;;;4975662;28;20186;-71
2024/01/08 12:27:25;;;;;;;1.83;0.50;;;23.50;99.90;;;;;;4975680;28;20187;-71
2024/01/08 12:29:55;;;;;;;2.13;0.60;;;23.50;99.90;;;;;;4976457;28;20194;-71
2024/01/08 12:32:24;;;;;;;2.23;0.80;;;23.50;99.90;;;;;;4993677;28;20183;-72
2024/01/08 12:34:52;;;;;;;2.03;0.70;;;23.30;99.90;;;;;;4994796;28;20616;-72
2024/01/08 12:37:21;;;;;;;0.97;0.63;;;23.40;99.90;;;;;;4994392;28;20751;-72
2024/01/08 12:39:48;;;;;;;4.23;0.90;;;23.40;99.90;;;;;;4994564;28;20190;-71
2024/01/08 12:42:20;;;;;;;2.63;0.77;;;23.40;99.90;;;;;;4980858;28;20194;-72
2024/01/08 12:44:48;;;;;;;5.13;0.70;;;23.30;99.90;;;;;;4985908;28;20735;-73
2024/01/08 12:47:15;;;;;;;1.77;0.70;;;23.30;99.90;;;;;;4994858;28;20206;-71
2024/01/08 12:49:43;;;;;;;5.70;1.00;;;23.30;99.90;;;;;;4994822;28;20177;-72
2024/01/08 12:52:12;;;;;;;2.40;0.80;;;23.30;99.90;;;;;;4991640;28;20357;-72